sensor_id;sensor_type;location;lat;lon;timestamp;P1;durP1;ratioP1;P2;durP2;ratioP2
42084;SDS011;27746;52.228;20.890;2024-03-08T00:01:57;76.82;;;36.22;;
42084;SDS011;27746;52.228;20.890;2024-03-08T00:04:23;80.18;;;37.20;;
42084;SDS011;27746;52.228;20.890;2024-03-08T00:06:50;72.22;;;34.08;;
42084;SDS011;27746;52.228;20.890;2024-03-08T00:09:17;79.93;;;34.70;;
42084;SDS011;27746;52.228;20.890;2024-03-08T00:11:45;69.13;;;31.98;;
42084;SDS011;27746;52.228;20.890;2024-03-08T00:14:14;70.93;;;32.92;;
42084;SDS011;27746;52.228;20.890;2024-03-08T00:16:42;78.10;;;33.65;;
42084;SDS011;27746;52.228;20.890;2024-03-08T00:19:09;76.95;;;33.20;;
42084;SDS011;27746;52.228;20.890;2024-03-08T00:21:36;70.85;;;34.13;;
42084;SDS011;27746;52.228;20.890;2024-03-08T00:24:03;65.85;;;33.03;;
42084;SDS011;27746;52.228;20.890;2024-03-08T00:26:30;73.40;;;34.97;;
42084;SDS011;27746;52.228;20.890;2024-03-08T00:28:59;67.35;;;33.65;;
42084;SDS011;27746;52.228;20.890;2024-03-08T00:31:28;78.18;;;34.92;;
42084;SDS011;27746;52.228;20.890;2024-03-08T00:33:56;70.97;;;33.05;;
42084;SDS011;27746;52.228;20.890;2024-03-08T00:36:23;69.55;;;33.95;;
42084;SDS011;27746;52.228;20.890;2024-03-08T00:38:50;75.25;;;34.70;;
42084;SDS011;27746;52.228;20.890;2024-03-08T00:41:16;77.47;;;35.88;;
42084;SDS011;27746;52.228;20.890;2024-03-08T00:43:43;75.05;;;36.90;;
42084;SDS011;27746;52.228;20.890;2024-03-08T00:46:14;72.18;;;34.83;;
42084;SDS011;27746;52.228;20.890;2024-03-08T00:48:41;72.88;;;35.80;;
42084;SDS011;27746;52.228;20.890;2024-03-08T00:51:08;76.28;;;35.65;;
42084;SDS011;27746;52.228;20.890;2024-03-08T00:53:35;70.10;;;35.72;;
42084;SDS011;27746;52.228;20.890;2024-03-08T00:56:02;74.28;;;34.22;;
42084;SDS011;27746;52.228;20.890;2024-03-08T00:58:29;71.38;;;33.75;;
42084;SDS011;27746;52.228;20.890;2024-03-08T01:00:56;70.63;;;35.10;;
42084;SDS011;27746;52.228;20.890;2024-03-08T01:03:25;72.05;;;36.03;;
42084;SDS011;27746;52.228;20.890;2024-03-08T01:05:52;69.95;;;34.70;;
42084;SDS011;27746;52.228;20.890;2024-03-08T01:08:22;71.72;;;35.33;;
42084;SDS011;27746;52.228;20.890;2024-03-08T01:10:49;72.88;;;35.08;;
42084;SDS011;27746;52.228;20.890;2024-03-08T01:13:16;78.18;;;35.92;;
42084;SDS011;27746;52.228;20.890;2024-03-08T01:15:44;74.88;;;35.28;;
42084;SDS011;27746;52.228;20.890;2024-03-08T01:18:11;73.68;;;33.78;;
42084;SDS011;27746;52.228;20.890;2024-03-08T01:20:39;72.70;;;34.55;;
42084;SDS011;27746;52.228;20.890;2024-03-08T01:23:06;73.88;;;36.17;;
42084;SDS011;27746;52.228;20.890;2024-03-08T01:25:33;72.72;;;35.25;;
42084;SDS011;27746;52.228;20.890;2024-03-08T01:28:00;77.65;;;35.75;;
42084;SDS011;27746;52.228;20.890;2024-03-08T01:30:27;69.25;;;33.72;;
42084;SDS011;27746;52.228;20.890;2024-03-08T01:32:55;72.72;;;35.05;;
42084;SDS011;27746;52.228;20.890;2024-03-08T01:35:22;68.70;;;33.53;;
42084;SDS011;27746;52.228;20.890;2024-03-08T01:37:50;67.97;;;36.08;;
42084;SDS011;27746;52.228;20.890;2024-03-08T01:40:19;75.95;;;36.72;;
42084;SDS011;27746;52.228;20.890;2024-03-08T01:42:47;66.90;;;33.42;;
42084;SDS011;27746;52.228;20.890;2024-03-08T01:45:14;72.22;;;33.08;;
42084;SDS011;27746;52.228;20.890;2024-03-08T01:47:41;70.88;;;34.70;;
42084;SDS011;27746;52.228;20.890;2024-03-08T01:50:13;76.28;;;34.88;;
42084;SDS011;27746;52.228;20.890;2024-03-08T01:52:41;69.80;;;34.20;;
42084;SDS011;27746;52.228;20.890;2024-03-08T01:55:10;71.78;;;34.42;;
42084;SDS011;27746;52.228;20.890;2024-03-08T01:57:40;76.53;;;37.35;;
42084;SDS011;27746;52.228;20.890;2024-03-08T02:00:08;70.68;;;34.47;;
42084;SDS011;27746;52.228;20.890;2024-03-08T02:02:36;68.28;;;35.53;;
42084;SDS011;27746;52.228;20.890;2024-03-08T02:05:04;67.63;;;35.20;;
42084;SDS011;27746;52.228;20.890;2024-03-08T02:07:31;64.82;;;31.48;;
42084;SDS011;27746;52.228;20.890;2024-03-08T02:09:58;67.53;;;32.90;;
42084;SDS011;27746;52.228;20.890;2024-03-08T02:12:27;63.75;;;33.10;;
42084;SDS011;27746;52.228;20.890;2024-03-08T02:14:54;68.93;;;34.67;;
42084;SDS011;27746;52.228;20.890;2024-03-08T02:17:21;67.97;;;33.65;;
42084;SDS011;27746;52.228;20.890;2024-03-08T02:19:48;74.88;;;35.28;;
42084;SDS011;27746;52.228;20.890;2024-03-08T02:22:16;70.53;;;32.38;;
42084;SDS011;27746;52.228;20.890;2024-03-08T02:24:43;66.60;;;32.38;;
42084;SDS011;27746;52.228;20.890;2024-03-08T02:27:10;63.65;;;32.15;;
42084;SDS011;27746;52.228;20.890;2024-03-08T02:29:37;67.10;;;33.70;;
42084;SDS011;27746;52.228;20.890;2024-03-08T02:32:06;72.95;;;35.47;;
42084;SDS011;27746;52.228;20.890;2024-03-08T02:34:32;77.25;;;32.22;;
42084;SDS011;27746;52.228;20.890;2024-03-08T02:36:59;64.95;;;32.40;;
42084;SDS011;27746;52.228;20.890;2024-03-08T02:39:28;70.75;;;34.08;;
42084;SDS011;27746;52.228;20.890;2024-03-08T02:41:55;68.35;;;32.63;;
42084;SDS011;27746;52.228;20.890;2024-03-08T02:44:21;71.65;;;33.97;;
42084;SDS011;27746;52.228;20.890;2024-03-08T02:46:48;75.03;;;36.00;;
42084;SDS011;27746;52.228;20.890;2024-03-08T02:49:15;70.28;;;34.97;;
42084;SDS011;27746;52.228;20.890;2024-03-08T02:51:42;68.88;;;34.60;;
42084;SDS011;27746;52.228;20.890;2024-03-08T02:54:09;71.43;;;33.95;;
42084;SDS011;27746;52.228;20.890;2024-03-08T02:56:38;73.97;;;34.00;;
42084;SDS011;27746;52.228;20.890;2024-03-08T02:59:07;70.97;;;34.80;;
42084;SDS011;27746;52.228;20.890;2024-03-08T03:01:33;69.30;;;34.63;;
42084;SDS011;27746;52.228;20.890;2024-03-08T03:04:01;65.05;;;32.47;;
42084;SDS011;27746;52.228;20.890;2024-03-08T03:06:28;73.30;;;35.90;;
42084;SDS011;27746;52.228;20.890;2024-03-08T03:08:55;72.63;;;34.90;;
42084;SDS011;27746;52.228;20.890;2024-03-08T03:11:22;80.32;;;36.78;;
42084;SDS011;27746;52.228;20.890;2024-03-08T03:13:50;61.72;;;33.13;;
42084;SDS011;27746;52.228;20.890;2024-03-08T03:16:17;69.13;;;33.25;;
42084;SDS011;27746;52.228;20.890;2024-03-08T03:18:45;71.18;;;34.80;;
42084;SDS011;27746;52.228;20.890;2024-03-08T03:21:12;81.07;;;36.88;;
42084;SDS011;27746;52.228;20.890;2024-03-08T03:23:39;69.70;;;33.45;;
42084;SDS011;27746;52.228;20.890;2024-03-08T03:26:07;75.38;;;35.38;;
42084;SDS011;27746;52.228;20.890;2024-03-08T03:28:36;66.43;;;34.50;;
42084;SDS011;27746;52.228;20.890;2024-03-08T03:31:05;66.45;;;35.25;;
42084;SDS011;27746;52.228;20.890;2024-03-08T03:33:32;66.53;;;33.53;;
42084;SDS011;27746;52.228;20.890;2024-03-08T03:36:01;71.00;;;33.83;;
42084;SDS011;27746;52.228;20.890;2024-03-08T03:38:30;78.10;;;37.70;;
42084;SDS011;27746;52.228;20.890;2024-03-08T03:40:56;76.38;;;37.47;;
42084;SDS011;27746;52.228;20.890;2024-03-08T03:43:29;72.47;;;35.07;;
42084;SDS011;27746;52.228;20.890;2024-03-08T03:45:56;66.70;;;34.95;;
42084;SDS011;27746;52.228;20.890;2024-03-08T03:48:24;75.53;;;36.67;;
42084;SDS011;27746;52.228;20.890;2024-03-08T03:50:51;68.93;;;35.92;;
42084;SDS011;27746;52.228;20.890;2024-03-08T03:53:18;78.57;;;35.17;;
42084;SDS011;27746;52.228;20.890;2024-03-08T03:55:44;71.30;;;35.45;;
42084;SDS011;27746;52.228;20.890;2024-03-08T03:58:11;75.75;;;37.08;;
42084;SDS011;27746;52.228;20.890;2024-03-08T04:00:39;75.13;;;35.35;;
42084;SDS011;27746;52.228;20.890;2024-03-08T04:03:06;72.55;;;37.50;;
42084;SDS011;27746;52.228;20.890;2024-03-08T04:05:34;72.60;;;35.28;;
42084;SDS011;27746;52.228;20.890;2024-03-08T04:08:01;71.53;;;36.50;;
42084;SDS011;27746;52.228;20.890;2024-03-08T04:10:28;78.22;;;35.38;;
42084;SDS011;27746;52.228;20.890;2024-03-08T04:12:55;77.80;;;36.05;;
42084;SDS011;27746;52.228;20.890;2024-03-08T04:15:22;77.40;;;37.78;;
42084;SDS011;27746;52.228;20.890;2024-03-08T04:17:51;79.13;;;37.90;;
42084;SDS011;27746;52.228;20.890;2024-03-08T04:20:18;78.10;;;36.83;;
42084;SDS011;27746;52.228;20.890;2024-03-08T04:22:46;76.05;;;37.13;;
42084;SDS011;27746;52.228;20.890;2024-03-08T04:25:14;76.47;;;37.38;;
42084;SDS011;27746;52.228;20.890;2024-03-08T04:27:41;78.13;;;38.15;;
42084;SDS011;27746;52.228;20.890;2024-03-08T04:30:08;76.30;;;38.05;;
42084;SDS011;27746;52.228;20.890;2024-03-08T04:32:35;74.38;;;36.17;;
42084;SDS011;27746;52.228;20.890;2024-03-08T04:35:03;71.45;;;37.30;;
42084;SDS011;27746;52.228;20.890;2024-03-08T04:37:30;75.20;;;37.20;;
42084;SDS011;27746;52.228;20.890;2024-03-08T04:39:58;75.22;;;37.33;;
42084;SDS011;27746;52.228;20.890;2024-03-08T04:42:26;77.00;;;38.08;;
42084;SDS011;27746;52.228;20.890;2024-03-08T04:44:53;81.05;;;39.67;;
42084;SDS011;27746;52.228;20.890;2024-03-08T04:47:20;80.18;;;37.30;;
42084;SDS011;27746;52.228;20.890;2024-03-08T04:49:47;81.45;;;38.22;;
42084;SDS011;27746;52.228;20.890;2024-03-08T04:52:15;77.63;;;38.28;;
42084;SDS011;27746;52.228;20.890;2024-03-08T04:54:42;78.93;;;37.47;;
42084;SDS011;27746;52.228;20.890;2024-03-08T04:57:11;82.93;;;39.47;;
42084;SDS011;27746;52.228;20.890;2024-03-08T04:59:38;83.47;;;38.13;;
42084;SDS011;27746;52.228;20.890;2024-03-08T05:02:04;83.15;;;38.08;;
42084;SDS011;27746;52.228;20.890;2024-03-08T05:04:32;80.88;;;37.78;;
42084;SDS011;27746;52.228;20.890;2024-03-08T05:06:59;80.15;;;37.10;;
42084;SDS011;27746;52.228;20.890;2024-03-08T05:09:26;84.25;;;39.47;;
42084;SDS011;27746;52.228;20.890;2024-03-08T05:11:56;82.20;;;37.90;;
42084;SDS011;27746;52.228;20.890;2024-03-08T05:14:28;87.65;;;39.22;;
42084;SDS011;27746;52.228;20.890;2024-03-08T05:16:54;85.72;;;41.25;;
42084;SDS011;27746;52.228;20.890;2024-03-08T05:19:23;78.50;;;38.33;;
42084;SDS011;27746;52.228;20.890;2024-03-08T05:21:50;76.68;;;37.70;;
42084;SDS011;27746;52.228;20.890;2024-03-08T05:24:17;84.28;;;40.17;;
42084;SDS011;27746;52.228;20.890;2024-03-08T05:26:44;82.75;;;39.08;;
42084;SDS011;27746;52.228;20.890;2024-03-08T05:29:12;81.00;;;37.60;;
42084;SDS011;27746;52.228;20.890;2024-03-08T05:31:45;90.00;;;39.30;;
42084;SDS011;27746;52.228;20.890;2024-03-08T05:34:14;84.30;;;38.40;;
42084;SDS011;27746;52.228;20.890;2024-03-08T05:36:44;84.30;;;39.33;;
42084;SDS011;27746;52.228;20.890;2024-03-08T05:39:11;83.10;;;41.17;;
42084;SDS011;27746;52.228;20.890;2024-03-08T05:41:38;86.00;;;38.30;;
42084;SDS011;27746;52.228;20.890;2024-03-08T05:44:06;80.47;;;38.80;;
42084;SDS011;27746;52.228;20.890;2024-03-08T05:46:33;86.57;;;40.20;;
42084;SDS011;27746;52.228;20.890;2024-03-08T05:49:02;79.80;;;38.17;;
42084;SDS011;27746;52.228;20.890;2024-03-08T05:51:30;88.18;;;39.78;;
42084;SDS011;27746;52.228;20.890;2024-03-08T05:54:02;93.32;;;40.28;;
42084;SDS011;27746;52.228;20.890;2024-03-08T05:56:30;93.38;;;41.60;;
42084;SDS011;27746;52.228;20.890;2024-03-08T05:58:58;95.07;;;40.97;;
42084;SDS011;27746;52.228;20.890;2024-03-08T06:01:25;90.32;;;42.20;;
42084;SDS011;27746;52.228;20.890;2024-03-08T06:03:52;95.90;;;43.45;;
42084;SDS011;27746;52.228;20.890;2024-03-08T06:06:22;96.68;;;43.35;;
42084;SDS011;27746;52.228;20.890;2024-03-08T06:08:50;111.68;;;44.78;;
42084;SDS011;27746;52.228;20.890;2024-03-08T06:11:17;103.25;;;46.17;;
42084;SDS011;27746;52.228;20.890;2024-03-08T06:13:45;111.65;;;47.78;;
42084;SDS011;27746;52.228;20.890;2024-03-08T06:16:13;114.90;;;51.35;;
42084;SDS011;27746;52.228;20.890;2024-03-08T06:18:40;117.55;;;52.83;;
42084;SDS011;27746;52.228;20.890;2024-03-08T06:21:08;110.05;;;49.92;;
42084;SDS011;27746;52.228;20.890;2024-03-08T06:23:38;117.85;;;52.60;;
42084;SDS011;27746;52.228;20.890;2024-03-08T06:26:05;117.65;;;53.25;;
42084;SDS011;27746;52.228;20.890;2024-03-08T06:28:32;125.45;;;53.45;;
42084;SDS011;27746;52.228;20.890;2024-03-08T06:30:59;111.10;;;53.13;;
42084;SDS011;27746;52.228;20.890;2024-03-08T06:33:27;113.22;;;55.22;;
42084;SDS011;27746;52.228;20.890;2024-03-08T06:35:54;104.97;;;53.35;;
42084;SDS011;27746;52.228;20.890;2024-03-08T06:38:22;113.07;;;52.20;;
42084;SDS011;27746;52.228;20.890;2024-03-08T06:40:50;105.30;;;50.97;;
42084;SDS011;27746;52.228;20.890;2024-03-08T06:43:17;107.38;;;51.08;;
42084;SDS011;27746;52.228;20.890;2024-03-08T06:45:44;109.32;;;50.45;;
42084;SDS011;27746;52.228;20.890;2024-03-08T06:48:14;98.20;;;49.25;;
42084;SDS011;27746;52.228;20.890;2024-03-08T06:50:42;104.90;;;49.17;;
42084;SDS011;27746;52.228;20.890;2024-03-08T06:53:09;98.10;;;49.03;;
42084;SDS011;27746;52.228;20.890;2024-03-08T06:55:35;96.93;;;48.15;;
42084;SDS011;27746;52.228;20.890;2024-03-08T06:58:04;100.82;;;48.97;;
42084;SDS011;27746;52.228;20.890;2024-03-08T07:00:31;99.55;;;49.53;;
42084;SDS011;27746;52.228;20.890;2024-03-08T07:02:58;92.70;;;49.00;;
42084;SDS011;27746;52.228;20.890;2024-03-08T07:05:26;111.40;;;50.35;;
42084;SDS011;27746;52.228;20.890;2024-03-08T07:07:55;95.72;;;49.72;;
42084;SDS011;27746;52.228;20.890;2024-03-08T07:10:22;96.78;;;49.10;;
42084;SDS011;27746;52.228;20.890;2024-03-08T07:12:50;102.45;;;49.35;;
42084;SDS011;27746;52.228;20.890;2024-03-08T07:15:19;95.18;;;46.92;;
42084;SDS011;27746;52.228;20.890;2024-03-08T07:17:46;102.03;;;46.60;;
42084;SDS011;27746;52.228;20.890;2024-03-08T07:20:13;99.88;;;47.65;;
42084;SDS011;27746;52.228;20.890;2024-03-08T07:22:43;97.53;;;47.45;;
42084;SDS011;27746;52.228;20.890;2024-03-08T07:25:12;85.57;;;45.03;;
42084;SDS011;27746;52.228;20.890;2024-03-08T07:27:46;88.95;;;45.50;;
42084;SDS011;27746;52.228;20.890;2024-03-08T07:30:13;85.25;;;44.53;;
42084;SDS011;27746;52.228;20.890;2024-03-08T07:33:03;78.63;;;42.83;;
42084;SDS011;27746;52.228;20.890;2024-03-08T07:35:32;84.88;;;41.13;;
42084;SDS011;27746;52.228;20.890;2024-03-08T07:38:02;78.18;;;41.03;;
42084;SDS011;27746;52.228;20.890;2024-03-08T07:40:30;76.00;;;39.55;;
42084;SDS011;27746;52.228;20.890;2024-03-08T07:42:57;70.85;;;37.60;;
42084;SDS011;27746;52.228;20.890;2024-03-08T07:45:25;80.78;;;41.45;;
42084;SDS011;27746;52.228;20.890;2024-03-08T07:47:52;72.03;;;40.15;;
42084;SDS011;27746;52.228;20.890;2024-03-08T07:50:20;77.25;;;40.00;;
42084;SDS011;27746;52.228;20.890;2024-03-08T07:52:47;83.80;;;39.20;;
42084;SDS011;27746;52.228;20.890;2024-03-08T07:55:14;80.68;;;40.78;;
42084;SDS011;27746;52.228;20.890;2024-03-08T07:57:41;73.65;;;40.90;;
42084;SDS011;27746;52.228;20.890;2024-03-08T08:00:08;77.82;;;42.25;;
42084;SDS011;27746;52.228;20.890;2024-03-08T08:02:36;78.65;;;42.20;;
42084;SDS011;27746;52.228;20.890;2024-03-08T08:05:03;85.07;;;40.97;;
42084;SDS011;27746;52.228;20.890;2024-03-08T08:07:32;87.93;;;41.72;;
42084;SDS011;27746;52.228;20.890;2024-03-08T08:09:59;82.18;;;40.67;;
42084;SDS011;27746;52.228;20.890;2024-03-08T08:12:25;74.53;;;40.03;;
42084;SDS011;27746;52.228;20.890;2024-03-08T08:14:54;77.32;;;39.00;;
42084;SDS011;27746;52.228;20.890;2024-03-08T08:17:21;70.35;;;37.38;;
42084;SDS011;27746;52.228;20.890;2024-03-08T08:19:48;75.43;;;37.17;;
42084;SDS011;27746;52.228;20.890;2024-03-08T08:22:15;70.03;;;34.78;;
42084;SDS011;27746;52.228;20.890;2024-03-08T08:24:44;70.88;;;35.40;;
42084;SDS011;27746;52.228;20.890;2024-03-08T08:27:11;69.38;;;35.83;;
42084;SDS011;27746;52.228;20.890;2024-03-08T08:29:39;59.88;;;32.00;;
42084;SDS011;27746;52.228;20.890;2024-03-08T08:32:06;61.95;;;33.17;;
42084;SDS011;27746;52.228;20.890;2024-03-08T08:34:33;66.60;;;33.83;;
42084;SDS011;27746;52.228;20.890;2024-03-08T08:36:59;54.65;;;30.10;;
42084;SDS011;27746;52.228;20.890;2024-03-08T08:39:26;61.20;;;31.77;;
42084;SDS011;27746;52.228;20.890;2024-03-08T08:41:55;61.05;;;30.15;;
42084;SDS011;27746;52.228;20.890;2024-03-08T08:44:22;60.35;;;28.45;;
42084;SDS011;27746;52.228;20.890;2024-03-08T08:46:50;55.08;;;29.10;;
42084;SDS011;27746;52.228;20.890;2024-03-08T08:49:18;53.63;;;30.15;;
42084;SDS011;27746;52.228;20.890;2024-03-08T08:51:48;59.10;;;28.05;;
42084;SDS011;27746;52.228;20.890;2024-03-08T08:54:15;51.58;;;26.33;;
42084;SDS011;27746;52.228;20.890;2024-03-08T08:56:43;55.40;;;26.60;;
42084;SDS011;27746;52.228;20.890;2024-03-08T08:59:11;52.20;;;26.02;;
42084;SDS011;27746;52.228;20.890;2024-03-08T09:01:38;47.00;;;25.88;;
42084;SDS011;27746;52.228;20.890;2024-03-08T09:04:05;45.70;;;25.33;;
42084;SDS011;27746;52.228;20.890;2024-03-08T09:06:33;44.20;;;21.73;;
42084;SDS011;27746;52.228;20.890;2024-03-08T09:09:01;37.20;;;20.52;;
42084;SDS011;27746;52.228;20.890;2024-03-08T09:11:29;39.40;;;21.00;;
42084;SDS011;27746;52.228;20.890;2024-03-08T09:13:56;35.03;;;18.65;;
42084;SDS011;27746;52.228;20.890;2024-03-08T09:16:24;30.80;;;17.60;;
42084;SDS011;27746;52.228;20.890;2024-03-08T09:18:51;33.17;;;17.50;;
42084;SDS011;27746;52.228;20.890;2024-03-08T09:21:18;41.83;;;17.90;;
42084;SDS011;27746;52.228;20.890;2024-03-08T09:23:45;37.50;;;17.70;;
42084;SDS011;27746;52.228;20.890;2024-03-08T09:26:11;36.05;;;17.75;;
42084;SDS011;27746;52.228;20.890;2024-03-08T09:28:40;38.40;;;18.67;;
42084;SDS011;27746;52.228;20.890;2024-03-08T09:31:07;36.45;;;18.88;;
42084;SDS011;27746;52.228;20.890;2024-03-08T09:33:36;36.10;;;18.08;;
42084;SDS011;27746;52.228;20.890;2024-03-08T09:36:04;31.58;;;17.15;;
42084;SDS011;27746;52.228;20.890;2024-03-08T09:38:32;29.05;;;16.25;;
42084;SDS011;27746;52.228;20.890;2024-03-08T09:41:00;31.92;;;18.52;;
42084;SDS011;27746;52.228;20.890;2024-03-08T09:43:29;34.50;;;17.70;;
42084;SDS011;27746;52.228;20.890;2024-03-08T09:45:56;27.65;;;16.27;;
42084;SDS011;27746;52.228;20.890;2024-03-08T09:48:24;26.40;;;16.98;;
42084;SDS011;27746;52.228;20.890;2024-03-08T09:50:53;27.80;;;16.25;;
42084;SDS011;27746;52.228;20.890;2024-03-08T09:53:21;28.02;;;16.10;;
42084;SDS011;27746;52.228;20.890;2024-03-08T09:55:48;21.33;;;13.20;;
42084;SDS011;27746;52.228;20.890;2024-03-08T09:58:15;23.98;;;13.48;;
42084;SDS011;27746;52.228;20.890;2024-03-08T10:00:53;24.70;;;12.85;;
42084;SDS011;27746;52.228;20.890;2024-03-08T10:03:22;23.15;;;13.38;;
42084;SDS011;27746;52.228;20.890;2024-03-08T10:05:51;27.70;;;15.20;;
42084;SDS011;27746;52.228;20.890;2024-03-08T10:08:20;23.33;;;14.98;;
42084;SDS011;27746;52.228;20.890;2024-03-08T10:10:47;32.53;;;15.45;;
42084;SDS011;27746;52.228;20.890;2024-03-08T10:13:14;26.98;;;15.75;;
42084;SDS011;27746;52.228;20.890;2024-03-08T10:15:42;33.45;;;16.55;;
42084;SDS011;27746;52.228;20.890;2024-03-08T10:18:09;21.45;;;14.65;;
42084;SDS011;27746;52.228;20.890;2024-03-08T10:20:36;25.80;;;15.07;;
42084;SDS011;27746;52.228;20.890;2024-03-08T10:23:04;23.00;;;15.60;;
42084;SDS011;27746;52.228;20.890;2024-03-08T10:25:33;23.35;;;14.45;;
42084;SDS011;27746;52.228;20.890;2024-03-08T10:28:02;22.08;;;13.75;;
42084;SDS011;27746;52.228;20.890;2024-03-08T10:30:30;30.25;;;15.38;;
42084;SDS011;27746;52.228;20.890;2024-03-08T10:32:57;25.20;;;14.43;;
42084;SDS011;27746;52.228;20.890;2024-03-08T10:35:25;21.80;;;15.15;;
42084;SDS011;27746;52.228;20.890;2024-03-08T10:37:52;21.90;;;13.82;;
42084;SDS011;27746;52.228;20.890;2024-03-08T10:40:24;25.83;;;14.75;;
42084;SDS011;27746;52.228;20.890;2024-03-08T10:42:53;25.75;;;15.43;;
42084;SDS011;27746;52.228;20.890;2024-03-08T10:45:30;23.13;;;14.88;;
42084;SDS011;27746;52.228;20.890;2024-03-08T10:48:04;21.63;;;13.38;;
42084;SDS011;27746;52.228;20.890;2024-03-08T10:50:42;20.75;;;12.93;;
42084;SDS011;27746;52.228;20.890;2024-03-08T10:53:11;21.73;;;13.85;;
42084;SDS011;27746;52.228;20.890;2024-03-08T10:55:40;19.88;;;13.18;;
42084;SDS011;27746;52.228;20.890;2024-03-08T10:58:10;25.27;;;14.25;;
42084;SDS011;27746;52.228;20.890;2024-03-08T11:00:37;20.33;;;13.98;;
42084;SDS011;27746;52.228;20.890;2024-03-08T11:03:04;23.35;;;14.80;;
42084;SDS011;27746;52.228;20.890;2024-03-08T11:05:31;26.55;;;13.88;;
42084;SDS011;27746;52.228;20.890;2024-03-08T11:08:03;20.05;;;13.73;;
42084;SDS011;27746;52.228;20.890;2024-03-08T11:10:46;21.83;;;15.00;;
42084;SDS011;27746;52.228;20.890;2024-03-08T11:16:06;20.02;;;13.73;;
42084;SDS011;27746;52.228;20.890;2024-03-08T11:18:34;20.52;;;13.48;;
42084;SDS011;27746;52.228;20.890;2024-03-08T11:21:02;22.08;;;14.40;;
42084;SDS011;27746;52.228;20.890;2024-03-08T11:23:31;22.05;;;14.57;;
42084;SDS011;27746;52.228;20.890;2024-03-08T11:25:59;20.65;;;13.48;;
42084;SDS011;27746;52.228;20.890;2024-03-08T11:28:26;19.58;;;13.68;;
42084;SDS011;27746;52.228;20.890;2024-03-08T11:33:51;24.23;;;13.82;;
42084;SDS011;27746;52.228;20.890;2024-03-08T11:36:20;25.08;;;15.98;;
42084;SDS011;27746;52.228;20.890;2024-03-08T11:38:49;23.13;;;14.18;;
42084;SDS011;27746;52.228;20.890;2024-03-08T11:41:18;22.35;;;13.48;;
42084;SDS011;27746;52.228;20.890;2024-03-08T11:43:46;21.88;;;12.93;;
42084;SDS011;27746;52.228;20.890;2024-03-08T11:46:13;22.45;;;13.48;;
42084;SDS011;27746;52.228;20.890;2024-03-08T11:48:47;22.02;;;13.63;;
42084;SDS011;27746;52.228;20.890;2024-03-08T11:51:14;20.20;;;14.40;;
42084;SDS011;27746;52.228;20.890;2024-03-08T11:53:43;19.55;;;12.50;;
42084;SDS011;27746;52.228;20.890;2024-03-08T11:56:11;21.52;;;12.85;;
42084;SDS011;27746;52.228;20.890;2024-03-08T11:58:39;23.45;;;14.52;;
42084;SDS011;27746;52.228;20.890;2024-03-08T12:01:08;17.45;;;12.43;;
42084;SDS011;27746;52.228;20.890;2024-03-08T12:03:37;21.00;;;12.43;;
42084;SDS011;27746;52.228;20.890;2024-03-08T12:06:05;18.98;;;12.65;;
42084;SDS011;27746;52.228;20.890;2024-03-08T12:08:34;27.35;;;14.60;;
42084;SDS011;27746;52.228;20.890;2024-03-08T12:11:03;25.15;;;14.20;;
42084;SDS011;27746;52.228;20.890;2024-03-08T12:13:30;22.77;;;13.85;;
42084;SDS011;27746;52.228;20.890;2024-03-08T12:15:59;24.42;;;13.50;;
42084;SDS011;27746;52.228;20.890;2024-03-08T12:18:26;17.20;;;12.70;;
42084;SDS011;27746;52.228;20.890;2024-03-08T12:21:03;20.27;;;12.98;;
42084;SDS011;27746;52.228;20.890;2024-03-08T12:23:33;20.15;;;13.13;;
42084;SDS011;27746;52.228;20.890;2024-03-08T12:26:08;19.48;;;12.70;;
42084;SDS011;27746;52.228;20.890;2024-03-08T12:28:38;25.00;;;13.27;;
42084;SDS011;27746;52.228;20.890;2024-03-08T12:31:06;22.40;;;12.95;;
42084;SDS011;27746;52.228;20.890;2024-03-08T12:33:35;18.88;;;12.40;;
42084;SDS011;27746;52.228;20.890;2024-03-08T12:36:02;22.48;;;12.48;;
42084;SDS011;27746;52.228;20.890;2024-03-08T12:38:33;22.20;;;13.50;;
42084;SDS011;27746;52.228;20.890;2024-03-08T12:41:02;25.77;;;13.13;;
42084;SDS011;27746;52.228;20.890;2024-03-08T12:43:29;17.98;;;13.27;;
42084;SDS011;27746;52.228;20.890;2024-03-08T12:45:56;20.20;;;12.75;;
42084;SDS011;27746;52.228;20.890;2024-03-08T12:48:23;17.73;;;13.55;;
42084;SDS011;27746;52.228;20.890;2024-03-08T12:50:50;19.63;;;12.60;;
42084;SDS011;27746;52.228;20.890;2024-03-08T12:53:19;19.85;;;13.07;;
42084;SDS011;27746;52.228;20.890;2024-03-08T12:55:49;21.63;;;13.70;;
42084;SDS011;27746;52.228;20.890;2024-03-08T12:58:17;21.92;;;13.25;;
42084;SDS011;27746;52.228;20.890;2024-03-08T13:00:45;26.83;;;14.10;;
42084;SDS011;27746;52.228;20.890;2024-03-08T13:03:12;27.60;;;14.52;;
42084;SDS011;27746;52.228;20.890;2024-03-08T13:05:39;27.55;;;13.40;;
42084;SDS011;27746;52.228;20.890;2024-03-08T13:08:07;20.23;;;13.35;;
42084;SDS011;27746;52.228;20.890;2024-03-08T13:10:38;20.90;;;13.52;;
42084;SDS011;27746;52.228;20.890;2024-03-08T13:13:06;22.35;;;14.43;;
42084;SDS011;27746;52.228;20.890;2024-03-08T13:15:34;20.30;;;12.65;;
42084;SDS011;27746;52.228;20.890;2024-03-08T13:18:01;21.27;;;12.93;;
42084;SDS011;27746;52.228;20.890;2024-03-08T13:20:30;18.02;;;13.88;;
42084;SDS011;27746;52.228;20.890;2024-03-08T13:22:57;18.88;;;12.15;;
42084;SDS011;27746;52.228;20.890;2024-03-08T13:25:26;18.08;;;12.07;;
42084;SDS011;27746;52.228;20.890;2024-03-08T13:27:58;20.13;;;11.63;;
42084;SDS011;27746;52.228;20.890;2024-03-08T13:30:27;17.60;;;11.50;;
42084;SDS011;27746;52.228;20.890;2024-03-08T13:32:53;18.85;;;12.13;;
42084;SDS011;27746;52.228;20.890;2024-03-08T13:35:19;23.90;;;13.25;;
42084;SDS011;27746;52.228;20.890;2024-03-08T13:37:49;21.52;;;12.68;;
42084;SDS011;27746;52.228;20.890;2024-03-08T13:40:17;20.02;;;11.77;;
42084;SDS011;27746;52.228;20.890;2024-03-08T13:42:45;20.10;;;11.88;;
42084;SDS011;27746;52.228;20.890;2024-03-08T13:45:12;19.13;;;11.82;;
42084;SDS011;27746;52.228;20.890;2024-03-08T13:47:44;18.45;;;11.70;;
42084;SDS011;27746;52.228;20.890;2024-03-08T13:50:11;19.08;;;11.68;;
42084;SDS011;27746;52.228;20.890;2024-03-08T13:52:38;23.25;;;12.20;;
42084;SDS011;27746;52.228;20.890;2024-03-08T13:55:05;24.77;;;12.30;;
42084;SDS011;27746;52.228;20.890;2024-03-08T13:57:33;22.45;;;12.73;;
42084;SDS011;27746;52.228;20.890;2024-03-08T14:00:00;20.92;;;12.48;;
42084;SDS011;27746;52.228;20.890;2024-03-08T14:02:28;17.63;;;12.00;;
42084;SDS011;27746;52.228;20.890;2024-03-08T14:04:57;19.40;;;12.25;;
42084;SDS011;27746;52.228;20.890;2024-03-08T14:07:26;19.65;;;11.57;;
42084;SDS011;27746;52.228;20.890;2024-03-08T14:09:54;18.73;;;11.60;;
42084;SDS011;27746;52.228;20.890;2024-03-08T14:12:20;22.77;;;15.23;;
42084;SDS011;27746;52.228;20.890;2024-03-08T14:14:49;20.30;;;12.68;;
42084;SDS011;27746;52.228;20.890;2024-03-08T14:17:17;21.65;;;12.20;;
42084;SDS011;27746;52.228;20.890;2024-03-08T14:19:44;20.55;;;12.43;;